Time;durP1;ratioP1;P1;durP2;ratioP2;P2;SDS_P1;SDS_P2;PMS_P1;PMS_P2;Temp;Humidity;BMP_temperature;BMP_pressure;BME280_temperature;BME280_humidity;BME280_pressure;Samples;Min_cycle;Max_cycle;Signal;HPM_P1;HPM_P2
2022/11/23 00:01:20;;;;;;;11.23;4.53;;;8.80;99.90;;;;;;5092374;28;20034;-60
2022/11/23 00:03:48;;;;;;;8.68;4.57;;;8.80;99.90;;;;;;5093663;28;20378;-60
2022/11/23 00:06:14;;;;;;;11.00;4.90;;;8.80;99.90;;;;;;5094392;28;20028;-60
2022/11/23 00:08:40;;;;;;;12.80;4.75;;;8.80;99.90;;;;;;5098024;28;20028;-60
2022/11/23 00:11:06;;;;;;;10.88;4.28;;;8.80;99.90;;;;;;5099253;27;20030;-61
2022/11/23 00:13:33;;;;;;;8.57;4.30;;;8.80;99.90;;;;;;5093243;28;20027;-60
2022/11/23 00:16:00;;;;;;;10.32;4.35;;;8.90;99.90;;;;;;5075345;28;20016;-60
2022/11/23 00:18:25;;;;;;;9.38;5.22;;;8.90;99.90;;;;;;5089785;28;20032;-60
2022/11/23 00:20:51;;;;;;;10.63;3.92;;;8.90;99.90;;;;;;5092297;28;20036;-60
2022/11/23 00:23:16;;;;;;;9.38;4.65;;;8.90;99.90;;;;;;5095539;28;20073;-60
2022/11/23 00:25:44;;;;;;;9.00;4.90;;;9.00;99.90;;;;;;5093870;28;20024;-60
2022/11/23 00:28:10;;;;;;;9.65;4.35;;;9.00;99.90;;;;;;5090494;28;20474;-60
2022/11/23 00:30:35;;;;;;;12.90;5.25;;;9.00;99.90;;;;;;5094920;28;20035;-61
2022/11/23 00:33:01;;;;;;;11.18;4.75;;;9.00;99.90;;;;;;5095137;28;20046;-60
2022/11/23 00:35:26;;;;;;;13.70;5.72;;;9.00;99.90;;;;;;5089845;28;20020;-60
2022/11/23 00:37:52;;;;;;;10.65;5.18;;;9.00;99.90;;;;;;5092449;28;20492;-61
2022/11/23 00:40:17;;;;;;;12.73;5.25;;;9.00;99.90;;;;;;5089538;28;20107;-60
2022/11/23 00:42:43;;;;;;;12.50;4.82;;;9.00;99.90;;;;;;5089563;28;20377;-60
2022/11/23 00:45:09;;;;;;;10.27;4.38;;;9.00;99.90;;;;;;5089557;28;20496;-61
2022/11/23 00:47:34;;;;;;;10.02;4.57;;;9.00;99.90;;;;;;5092314;28;20036;-60
2022/11/23 00:50:00;;;;;;;11.00;4.90;;;9.00;99.90;;;;;;5092089;28;20089;-60
2022/11/23 00:52:25;;;;;;;18.42;5.57;;;9.00;99.90;;;;;;5097220;28;20342;-60
2022/11/23 00:54:51;;;;;;;12.23;4.30;;;9.00;99.90;;;;;;5094007;28;20535;-60
2022/11/23 00:57:16;;;;;;;14.75;5.03;;;9.00;99.90;;;;;;5100926;28;20049;-60
2022/11/23 00:59:42;;;;;;;11.18;4.18;;;9.00;99.90;;;;;;5093712;28;20039;-60
2022/11/23 01:02:07;;;;;;;12.18;4.38;;;9.00;99.90;;;;;;5092984;28;20452;-60
2022/11/23 01:04:33;;;;;;;16.52;4.28;;;9.10;99.90;;;;;;5100194;28;20032;-61
2022/11/23 01:06:59;;;;;;;8.35;4.00;;;9.10;99.90;;;;;;5089213;28;20513;-60
2022/11/23 01:09:25;;;;;;;10.32;4.22;;;9.10;99.90;;;;;;5093963;28;20070;-60
2022/11/23 01:11:54;;;;;;;8.25;3.05;;;9.10;99.90;;;;;;5095876;27;20075;-60
2022/11/23 01:14:20;;;;;;;8.25;3.78;;;9.10;99.90;;;;;;5097502;28;20484;-60
2022/11/23 01:16:45;;;;;;;12.30;3.67;;;9.10;99.90;;;;;;5093980;28;20103;-60
2022/11/23 01:19:13;;;;;;;14.55;4.18;;;9.10;99.90;;;;;;5092641;28;20465;-60
2022/11/23 01:21:39;;;;;;;10.93;3.97;;;9.10;99.90;;;;;;5090423;28;20440;-60
2022/11/23 01:24:07;;;;;;;15.23;4.20;;;9.10;99.90;;;;;;5090470;28;20035;-60
2022/11/23 01:26:33;;;;;;;12.20;3.53;;;9.10;99.90;;;;;;5074583;28;20026;-60
2022/11/23 01:28:58;;;;;;;8.93;3.50;;;9.10;99.90;;;;;;5091998;28;20024;-60
2022/11/23 01:31:25;;;;;;;10.18;3.55;;;9.10;99.90;;;;;;5090398;28;20097;-60
2022/11/23 01:33:59;;;;;;;11.30;3.25;;;9.10;99.90;;;;;;5094366;28;20504;-60
2022/11/23 01:36:27;;;;;;;9.55;3.30;;;9.10;99.90;;;;;;5088798;28;20051;-61
2022/11/23 01:38:54;;;;;;;9.55;2.95;;;9.10;99.90;;;;;;5088530;28;20031;-60
2022/11/23 01:41:24;;;;;;;11.85;3.38;;;9.10;99.90;;;;;;5093050;28;20024;-60
2022/11/23 01:43:51;;;;;;;11.15;3.70;;;9.10;99.90;;;;;;5093969;28;20031;-60
2022/11/23 01:46:17;;;;;;;12.88;3.40;;;9.10;99.90;;;;;;5113468;28;20456;-61
2022/11/23 01:48:57;;;;;;;14.48;3.45;;;9.10;99.90;;;;;;5094930;28;20418;-60
2022/11/23 01:51:27;;;;;;;10.35;3.13;;;9.10;99.90;;;;;;5094202;28;20111;-61
2022/11/23 01:53:55;;;;;;;9.30;2.83;;;9.10;99.90;;;;;;5088353;28;20020;-60
2022/11/23 01:56:27;;;;;;;12.77;2.95;;;9.10;99.90;;;;;;5090562;28;20059;-60
2022/11/23 01:58:56;;;;;;;10.93;3.22;;;9.10;99.90;;;;;;5073090;28;20429;-61
2022/11/23 02:01:21;;;;;;;9.15;2.90;;;9.10;99.90;;;;;;5094460;28;20055;-60
2022/11/23 02:03:49;;;;;;;7.93;2.15;;;9.10;99.90;;;;;;5092967;28;20492;-60
2022/11/23 02:06:17;;;;;;;10.35;2.22;;;9.10;99.90;;;;;;5091341;28;20036;-60
2022/11/23 02:08:44;;;;;;;8.38;2.58;;;9.10;99.90;;;;;;5092758;28;20034;-60
2022/11/23 02:11:12;;;;;;;10.43;3.35;;;9.10;99.90;;;;;;5099217;28;20183;-60
2022/11/23 02:13:38;;;;;;;10.27;3.50;;;9.20;99.90;;;;;;5092796;28;20027;-60
2022/11/23 02:16:04;;;;;;;9.27;2.75;;;9.20;99.90;;;;;;5094031;28;20447;-60
2022/11/23 02:18:31;;;;;;;12.00;3.22;;;9.20;99.90;;;;;;5088446;28;20032;-60
2022/11/23 02:20:59;;;;;;;9.55;2.55;;;9.20;99.90;;;;;;5074991;28;20390;-61
2022/11/23 02:23:55;;;;;;;10.90;3.28;;;9.20;99.90;;;;;;5088299;28;20150;-60
2022/11/23 02:26:29;;;;;;;5.63;2.00;;;9.20;99.90;;;;;;5089708;28;20526;-61
2022/11/23 02:29:09;;;;;;;7.53;2.20;;;9.20;99.90;;;;;;5088025;28;20020;-60
2022/11/23 02:31:35;;;;;;;8.63;2.30;;;9.20;99.90;;;;;;5096569;28;20052;-60
2022/11/23 02:34:01;;;;;;;11.63;2.47;;;9.20;99.90;;;;;;5092985;28;20105;-60
2022/11/23 02:36:46;;;;;;;8.15;1.98;;;9.20;99.90;;;;;;5090876;28;20050;-60
2022/11/23 02:39:21;;;;;;;11.52;3.20;;;9.30;99.90;;;;;;5088029;28;20060;-60
2022/11/23 02:41:49;;;;;;;9.05;2.40;;;9.20;99.90;;;;;;5090809;28;20032;-60
2022/11/23 02:44:51;;;;;;;5.75;1.83;;;9.20;99.90;;;;;;5090746;28;20020;-60
2022/11/23 02:47:17;;;;;;;6.35;2.38;;;9.30;99.90;;;;;;5084571;28;20401;-60
2022/11/23 02:49:46;;;;;;;7.65;2.33;;;9.20;99.90;;;;;;5091348;28;20027;-60
2022/11/23 02:52:11;;;;;;;6.78;2.10;;;9.20;99.90;;;;;;5087716;28;20032;-60
2022/11/23 02:54:37;;;;;;;11.82;2.88;;;9.20;99.90;;;;;;5095434;28;20394;-60
2022/11/23 02:57:03;;;;;;;9.27;1.95;;;9.20;99.90;;;;;;5116338;27;20112;-61
2022/11/23 02:59:31;;;;;;;8.02;1.80;;;9.10;99.90;;;;;;5109824;27;20110;-60
2022/11/23 03:01:57;;;;;;;9.75;2.42;;;9.10;99.90;;;;;;5097357;28;20023;-60
2022/11/23 03:04:23;;;;;;;10.48;2.08;;;9.10;99.90;;;;;;5114058;27;20524;-60
2022/11/23 03:06:48;;;;;;;9.63;1.77;;;9.10;99.90;;;;;;5122301;27;20027;-60
2022/11/23 03:09:14;;;;;;;10.68;2.53;;;9.10;99.90;;;;;;5075838;28;20091;-60
2022/11/23 03:11:39;;;;;;;14.43;2.17;;;9.10;99.90;;;;;;5099581;28;20055;-61
2022/11/23 03:14:05;;;;;;;7.78;2.10;;;9.10;99.90;;;;;;5095620;28;20086;-60
2022/11/23 03:16:32;;;;;;;7.97;1.60;;;9.10;99.90;;;;;;5097956;28;20032;-60
2022/11/23 03:18:57;;;;;;;7.57;1.65;;;9.10;99.90;;;;;;5096538;28;20030;-60
2022/11/23 03:21:23;;;;;;;8.75;1.95;;;9.10;99.90;;;;;;5093932;28;20032;-60
2022/11/23 03:23:49;;;;;;;13.30;1.95;;;9.10;99.90;;;;;;5097094;28;20620;-60
2022/11/23 03:26:14;;;;;;;11.88;1.90;;;9.10;99.90;;;;;;5093844;28;20472;-60
2022/11/23 03:28:40;;;;;;;9.10;1.80;;;9.10;99.90;;;;;;5091202;28;20355;-60
2022/11/23 03:31:05;;;;;;;8.88;1.65;;;9.10;99.90;;;;;;5093931;28;20073;-60
2022/11/23 03:33:31;;;;;;;11.85;1.98;;;9.10;99.90;;;;;;5097458;28;20468;-60
2022/11/23 03:35:57;;;;;;;15.10;2.13;;;9.10;99.90;;;;;;5094583;28;20032;-60
2022/11/23 03:38:22;;;;;;;9.23;2.38;;;9.20;99.90;;;;;;5097054;28;20058;-60
2022/11/23 03:40:48;;;;;;;15.13;2.85;;;9.20;99.90;;;;;;5091201;28;20390;-60
2022/11/23 03:43:14;;;;;;;7.80;1.73;;;9.10;99.90;;;;;;5095420;28;20035;-61
2022/11/23 03:45:40;;;;;;;9.27;2.03;;;9.10;99.90;;;;;;5096682;28;20059;-60
2022/11/23 03:48:05;;;;;;;11.30;2.17;;;9.20;99.90;;;;;;5090710;28;20584;-60
2022/11/23 03:50:31;;;;;;;10.85;1.85;;;9.10;99.90;;;;;;5075075;28;20481;-60
2022/11/23 03:52:58;;;;;;;12.23;2.55;;;9.10;99.90;;;;;;5090262;28;20045;-60
2022/11/23 03:55:24;;;;;;;15.43;2.58;;;9.10;99.90;;;;;;5090586;28;20028;-60
2022/11/23 03:57:50;;;;;;;8.48;1.90;;;9.10;99.90;;;;;;5093544;28;20035;-60
2022/11/23 04:00:15;;;;;;;7.93;2.88;;;9.10;99.90;;;;;;5093698;28;20024;-60
2022/11/23 04:02:42;;;;;;;11.20;1.85;;;9.10;99.90;;;;;;5098976;28;20038;-60
2022/11/23 04:05:08;;;;;;;7.07;1.80;;;9.10;99.90;;;;;;5100229;28;20031;-60
2022/11/23 04:07:34;;;;;;;11.40;2.25;;;9.00;99.90;;;;;;5095993;28;20095;-60
2022/11/23 04:09:59;;;;;;;11.55;2.60;;;9.00;99.90;;;;;;5095466;28;20464;-60
2022/11/23 04:12:25;;;;;;;9.80;2.08;;;9.00;99.90;;;;;;5072026;28;20028;-61
2022/11/23 04:14:51;;;;;;;9.93;2.58;;;9.00;99.90;;;;;;5090210;28;20039;-61
2022/11/23 04:17:16;;;;;;;11.27;2.63;;;9.00;99.90;;;;;;5090104;28;20132;-60
2022/11/23 04:19:42;;;;;;;12.30;2.80;;;8.90;99.90;;;;;;5071882;28;20028;-60
2022/11/23 04:22:07;;;;;;;10.38;2.10;;;8.90;99.90;;;;;;5091802;28;20496;-60
2022/11/23 04:24:33;;;;;;;13.52;2.25;;;8.90;99.90;;;;;;5095576;28;20032;-60
2022/11/23 04:26:58;;;;;;;12.55;3.03;;;8.90;99.90;;;;;;5071759;28;20107;-60
2022/11/23 04:29:24;;;;;;;10.75;2.00;;;8.90;99.90;;;;;;5089965;28;20039;-60
2022/11/23 04:31:49;;;;;;;9.52;1.95;;;8.90;99.90;;;;;;5074166;28;20100;-60
2022/11/23 04:34:15;;;;;;;9.75;2.30;;;8.90;99.90;;;;;;5092848;28;20538;-60
2022/11/23 04:36:40;;;;;;;8.77;2.15;;;8.90;99.90;;;;;;5095430;28;20032;-60
2022/11/23 04:39:06;;;;;;;9.77;1.67;;;8.90;99.90;;;;;;5094187;28;20027;-60
2022/11/23 04:41:32;;;;;;;7.15;1.85;;;8.90;99.90;;;;;;5100957;28;20023;-60
2022/11/23 04:43:57;;;;;;;12.30;2.92;;;8.90;99.90;;;;;;5089392;28;20508;-61
2022/11/23 04:46:23;;;;;;;7.90;2.28;;;8.90;99.90;;;;;;5094952;28;20020;-60
2022/11/23 04:48:49;;;;;;;12.00;1.90;;;8.90;99.90;;;;;;5093760;28;20485;-60
2022/11/23 04:51:15;;;;;;;9.80;2.10;;;8.90;99.90;;;;;;5090035;28;20098;-61
2022/11/23 04:53:41;;;;;;;7.55;1.67;;;8.90;99.90;;;;;;5093068;28;20020;-60
2022/11/23 04:56:07;;;;;;;10.23;2.28;;;8.90;99.90;;;;;;5097832;28;20030;-60
2022/11/23 04:58:32;;;;;;;8.43;1.60;;;8.90;99.90;;;;;;5097683;28;20438;-60
2022/11/23 05:00:58;;;;;;;13.05;2.45;;;8.90;99.90;;;;;;5092942;28;20498;-60
2022/11/23 05:03:24;;;;;;;14.20;2.35;;;8.90;99.90;;;;;;5092922;28;20106;-60
2022/11/23 05:05:49;;;;;;;9.23;2.17;;;8.90;99.90;;;;;;5092457;28;20036;-60
2022/11/23 05:08:15;;;;;;;8.30;1.83;;;8.90;99.90;;;;;;5092080;28;20023;-61
2022/11/23 05:10:41;;;;;;;11.55;3.03;;;8.90;99.90;;;;;;5098779;28;20646;-61
2022/11/23 05:13:06;;;;;;;6.90;1.67;;;8.90;99.90;;;;;;5094456;28;20024;-60
2022/11/23 05:15:32;;;;;;;12.52;2.67;;;8.90;99.90;;;;;;5094586;28;20142;-60
2022/11/23 05:18:05;;;;;;;14.60;2.78;;;8.90;99.90;;;;;;5110044;27;20024;-60
2022/11/23 05:20:31;;;;;;;13.93;1.95;;;8.90;99.90;;;;;;5090599;28;20028;-60
2022/11/23 05:22:57;;;;;;;13.18;1.75;;;8.90;99.90;;;;;;5088864;28;20020;-61
2022/11/23 05:25:23;;;;;;;12.75;1.83;;;8.90;99.90;;;;;;5089177;28;20050;-60
2022/11/23 05:27:48;;;;;;;11.75;1.70;;;8.90;99.90;;;;;;5088989;28;20105;-60
2022/11/23 05:30:14;;;;;;;10.80;2.47;;;8.80;99.90;;;;;;5073480;28;20510;-60
2022/11/23 05:32:39;;;;;;;8.70;1.98;;;8.90;99.90;;;;;;5082235;28;20044;-60
2022/11/23 05:35:05;;;;;;;10.93;2.20;;;8.80;99.90;;;;;;5091870;28;20063;-60
2022/11/23 05:37:33;;;;;;;11.10;2.15;;;8.80;99.90;;;;;;5094343;28;20528;-60
2022/11/23 05:39:58;;;;;;;17.02;2.72;;;8.80;99.90;;;;;;5091533;28;20026;-60
2022/11/23 05:42:24;;;;;;;10.68;1.92;;;8.80;99.90;;;;;;5089454;28;20384;-61
2022/11/23 05:44:50;;;;;;;10.48;1.95;;;8.90;99.90;;;;;;5088713;28;20028;-60
2022/11/23 05:47:15;;;;;;;12.27;2.05;;;8.80;99.90;;;;;;5091227;28;20538;-60
2022/11/23 05:49:41;;;;;;;13.35;2.35;;;8.80;99.90;;;;;;5073106;28;20031;-60
2022/11/23 05:52:06;;;;;;;12.05;2.17;;;8.90;99.90;;;;;;5094312;28;20028;-60
2022/11/23 05:54:32;;;;;;;10.70;2.00;;;8.90;99.90;;;;;;5093985;28;20023;-60
2022/11/23 05:56:58;;;;;;;10.02;2.28;;;8.90;99.90;;;;;;5088359;28;20465;-61
2022/11/23 05:59:23;;;;;;;9.05;1.27;;;8.90;99.90;;;;;;5092776;28;20065;-60
2022/11/23 06:01:49;;;;;;;10.82;1.88;;;8.90;99.90;;;;;;5076284;28;20020;-60
2022/11/23 06:04:14;;;;;;;11.30;2.13;;;8.90;99.90;;;;;;5092669;28;20028;-60
2022/11/23 06:06:40;;;;;;;13.57;2.47;;;8.90;99.90;;;;;;5094107;28;20541;-60
2022/11/23 06:09:05;;;;;;;13.82;2.00;;;8.90;99.90;;;;;;5094169;28;20396;-60
2022/11/23 06:11:31;;;;;;;12.35;2.10;;;8.90;99.90;;;;;;5088361;28;20037;-60
2022/11/23 06:13:57;;;;;;;15.52;2.10;;;8.90;99.90;;;;;;5093983;28;20028;-61
2022/11/23 06:16:22;;;;;;;12.13;2.38;;;8.80;99.90;;;;;;5088676;28;20023;-60
2022/11/23 06:18:48;;;;;;;15.68;2.53;;;8.80;99.90;;;;;;5099013;28;20093;-60
2022/11/23 06:21:13;;;;;;;13.77;2.13;;;8.80;99.90;;;;;;5112799;27;21165;-61
2022/11/23 06:23:39;;;;;;;13.40;2.28;;;8.80;99.90;;;;;;5089059;28;20035;-60
2022/11/23 06:26:05;;;;;;;13.65;2.35;;;8.80;99.90;;;;;;5091216;28;20028;-60
2022/11/23 06:28:30;;;;;;;11.32;2.80;;;8.80;99.90;;;;;;5094309;28;20536;-60
2022/11/23 06:31:01;;;;;;;10.85;2.75;;;8.80;99.90;;;;;;5093967;28;20934;-60
2022/11/23 06:33:26;;;;;;;18.50;4.47;;;8.80;99.90;;;;;;5092249;28;20024;-60
2022/11/23 06:35:57;;;;;;;18.40;4.13;;;8.70;99.90;;;;;;5076682;28;20031;-60
2022/11/23 06:38:23;;;;;;;17.20;4.63;;;8.70;99.90;;;;;;5101813;27;20035;-61
2022/11/23 06:40:49;;;;;;;16.10;5.18;;;8.70;99.90;;;;;;5095847;28;20081;-61
2022/11/23 06:43:15;;;;;;;12.30;4.10;;;8.70;99.90;;;;;;5101492;28;20040;-61
2022/11/23 06:45:40;;;;;;;17.23;4.60;;;8.70;99.90;;;;;;5094364;28;20028;-61
2022/11/23 06:48:06;;;;;;;20.63;4.55;;;8.60;99.90;;;;;;5096854;28;20028;-61
2022/11/23 06:50:31;;;;;;;16.75;3.55;;;8.60;99.90;;;;;;5106962;28;20543;-61
2022/11/23 06:52:57;;;;;;;10.00;2.85;;;8.60;99.90;;;;;;5113164;28;20031;-61
2022/11/23 06:55:24;;;;;;;17.73;4.32;;;8.60;99.90;;;;;;5105684;28;20039;-61
2022/11/23 06:57:50;;;;;;;16.27;3.10;;;8.50;99.90;;;;;;5113149;28;20048;-61
2022/11/23 07:00:16;;;;;;;20.08;4.20;;;8.50;99.90;;;;;;5107033;27;20105;-61
2022/11/23 07:02:42;;;;;;;16.77;3.15;;;8.50;99.90;;;;;;5083176;28;20032;-61
2022/11/23 07:05:08;;;;;;;12.93;2.65;;;8.50;99.90;;;;;;5111750;28;20028;-61
2022/11/23 07:07:34;;;;;;;11.57;2.42;;;8.50;99.90;;;;;;5095164;28;20477;-61
2022/11/23 07:09:59;;;;;;;16.25;2.55;;;8.50;99.90;;;;;;5101476;28;20034;-61
2022/11/23 07:12:25;;;;;;;12.13;2.70;;;8.50;99.90;;;;;;5106224;28;20141;-61
2022/11/23 07:14:51;;;;;;;11.85;2.15;;;8.40;99.90;;;;;;5110945;28;20031;-61
2022/11/23 07:17:16;;;;;;;12.70;2.58;;;8.40;99.90;;;;;;5088962;28;20028;-61
2022/11/23 07:19:42;;;;;;;17.25;2.58;;;8.40;99.90;;;;;;5110937;28;20092;-61
2022/11/23 07:22:07;;;;;;;16.48;2.55;;;8.40;99.90;;;;;;5104996;28;20066;-61
2022/11/23 07:24:33;;;;;;;14.05;2.42;;;8.40;99.90;;;;;;5111056;28;20366;-61
2022/11/23 07:26:58;;;;;;;17.17;3.10;;;8.40;99.90;;;;;;5095702;28;20050;-61
2022/11/23 07:29:24;;;;;;;12.30;2.35;;;8.40;99.90;;;;;;5098894;28;20095;-61
2022/11/23 07:31:49;;;;;;;17.20;3.25;;;8.40;99.90;;;;;;5104237;28;20044;-61
2022/11/23 07:34:15;;;;;;;12.77;3.15;;;8.40;99.90;;;;;;5103554;28;20393;-61
2022/11/23 07:36:40;;;;;;;12.80;2.67;;;8.40;99.90;;;;;;5108805;28;20034;-61
2022/11/23 07:39:06;;;;;;;17.13;2.50;;;8.40;99.90;;;;;;5078544;28;20074;-61
2022/11/23 07:41:32;;;;;;;13.73;3.53;;;8.40;99.90;;;;;;5107756;28;20119;-61
2022/11/23 07:43:57;;;;;;;18.25;2.90;;;8.40;99.90;;;;;;5107180;28;20028;-61
2022/11/23 07:46:23;;;;;;;16.85;2.65;;;8.40;99.90;;;;;;5108063;28;20028;-61
2022/11/23 07:48:49;;;;;;;16.33;1.98;;;8.40;99.90;;;;;;5094072;28;20848;-61
2022/11/23 07:51:15;;;;;;;13.70;2.20;;;8.40;99.90;;;;;;5099910;28;20031;-61
2022/11/23 07:53:41;;;;;;;14.57;3.10;;;8.40;99.90;;;;;;5100045;28;20031;-61
2022/11/23 07:56:06;;;;;;;15.43;2.65;;;8.50;99.90;;;;;;5085859;28;20408;-61
2022/11/23 07:58:32;;;;;;;9.27;2.83;;;8.50;99.90;;;;;;5106563;28;20076;-62
2022/11/23 08:00:58;;;;;;;9.38;1.70;;;8.50;99.90;;;;;;5100502;28;20477;-61
2022/11/23 08:03:24;;;;;;;12.65;2.63;;;8.60;99.90;;;;;;5083513;28;20020;-61
2022/11/23 08:05:50;;;;;;;23.70;2.97;;;8.60;99.90;;;;;;5107636;28;20545;-62
2022/11/23 08:08:16;;;;;;;19.48;2.63;;;8.60;99.90;;;;;;5099489;28;20023;-60
2022/11/23 08:10:41;;;;;;;15.90;2.65;;;8.70;99.90;;;;;;5108059;28;20027;-61
2022/11/23 08:13:07;;;;;;;14.52;2.38;;;8.70;99.90;;;;;;5094430;28;20524;-61
2022/11/23 08:15:32;;;;;;;19.58;2.35;;;8.70;99.90;;;;;;5093826;28;20020;-61
2022/11/23 08:18:00;;;;;;;16.95;2.60;;;8.80;99.90;;;;;;5093919;28;20458;-61
2022/11/23 08:20:27;;;;;;;18.15;3.17;;;8.90;99.90;;;;;;5093962;28;20020;-60
2022/11/23 08:22:56;;;;;;;16.00;2.58;;;8.90;99.90;;;;;;5093982;28;20032;-61
2022/11/23 08:25:23;;;;;;;12.40;2.42;;;9.00;99.90;;;;;;5093834;28;20054;-61
2022/11/23 08:27:57;;;;;;;12.77;3.17;;;9.00;99.90;;;;;;5094468;28;20035;-61
2022/11/23 08:30:23;;;;;;;14.73;2.03;;;9.00;99.90;;;;;;5093191;28;20016;-61
2022/11/23 08:32:48;;;;;;;14.02;2.35;;;9.00;99.90;;;;;;5075007;28;20043;-61
2022/11/23 08:35:14;;;;;;;12.10;2.20;;;9.10;99.90;;;;;;5108809;28;20020;-61
2022/11/23 08:37:39;;;;;;;11.45;2.28;;;9.10;99.90;;;;;;5103536;28;20024;-61
2022/11/23 08:40:06;;;;;;;16.95;1.98;;;9.20;99.90;;;;;;5095331;28;20030;-61
2022/11/23 08:42:31;;;;;;;11.10;2.63;;;9.20;99.90;;;;;;5103778;28;20019;-61
2022/11/23 08:44:58;;;;;;;11.48;2.88;;;9.20;99.90;;;;;;5077380;28;20779;-61
2022/11/23 08:47:24;;;;;;;17.05;2.63;;;9.20;99.90;;;;;;5094570;28;20027;-60
2022/11/23 08:49:50;;;;;;;15.43;2.42;;;9.10;99.90;;;;;;5095141;28;20099;-61
2022/11/23 08:52:16;;;;;;;18.05;2.90;;;9.10;99.90;;;;;;5094367;28;20028;-60
2022/11/23 08:54:41;;;;;;;13.32;2.10;;;9.10;99.90;;;;;;5094057;28;20086;-61
2022/11/23 08:57:07;;;;;;;13.57;2.25;;;9.00;99.90;;;;;;5094582;28;20032;-61
2022/11/23 08:59:33;;;;;;;13.60;3.03;;;9.00;99.90;;;;;;5095691;28;20020;-61
2022/11/23 09:01:58;;;;;;;14.48;2.67;;;9.00;99.90;;;;;;5094651;28;20020;-61
2022/11/23 09:04:26;;;;;;;14.05;2.60;;;9.00;99.90;;;;;;5108901;28;20123;-61
2022/11/23 09:06:52;;;;;;;12.55;1.80;;;9.10;99.90;;;;;;5107839;28;20433;-61
2022/11/23 09:09:17;;;;;;;12.25;2.60;;;9.10;99.90;;;;;;5081201;28;20031;-61
2022/11/23 09:11:43;;;;;;;15.27;2.10;;;9.10;99.90;;;;;;5097140;28;20062;-61
2022/11/23 09:14:09;;;;;;;14.80;3.05;;;9.10;99.90;;;;;;5096963;28;20537;-61
2022/11/23 09:16:34;;;;;;;16.10;2.72;;;9.10;99.90;;;;;;5097146;28;20084;-61
2022/11/23 09:19:00;;;;;;;11.57;2.80;;;9.10;99.90;;;;;;5075792;28;20060;-61
2022/11/23 09:21:29;;;;;;;12.80;2.50;;;9.10;99.90;;;;;;5100844;28;20020;-61
2022/11/23 09:23:55;;;;;;;14.20;2.20;;;9.20;99.90;;;;;;5101149;28;20384;-61
2022/11/23 09:26:21;;;;;;;12.70;2.83;;;9.20;99.90;;;;;;5097402;28;20032;-61
2022/11/23 09:28:46;;;;;;;13.13;2.63;;;9.30;99.90;;;;;;5094950;28;20035;-61
2022/11/23 09:31:12;;;;;;;9.85;2.53;;;9.30;99.90;;;;;;5094434;28;20012;-61
2022/11/23 09:33:37;;;;;;;11.65;1.88;;;9.30;99.90;;;;;;5103940;28;20030;-61
2022/11/23 09:36:04;;;;;;;10.32;2.03;;;9.30;99.90;;;;;;5099636;28;20024;-61
2022/11/23 09:38:29;;;;;;;16.15;2.22;;;9.40;99.90;;;;;;5095033;28;20055;-61
2022/11/23 09:41:34;;;;;;;13.00;2.40;;;9.50;99.90;;;;;;5097516;28;20489;-61
2022/11/23 09:44:31;;;;;;;10.15;2.13;;;9.60;99.90;;;;;;5095759;28;20047;-61
2022/11/23 09:47:24;;;;;;;16.77;2.10;;;9.70;99.90;;;;;;5095138;28;20378;-61
2022/11/23 09:50:13;;;;;;;11.40;2.17;;;9.90;99.90;;;;;;5092179;28;20073;-61
2022/11/23 09:52:43;;;;;;;12.63;2.53;;;9.90;99.90;;;;;;5071457;28;20036;-61
2022/11/23 09:55:16;;;;;;;12.35;2.80;;;9.90;99.90;;;;;;5076850;28;20074;-61
2022/11/23 09:57:45;;;;;;;15.52;1.88;;;10.00;99.90;;;;;;5102073;28;20497;-61
2022/11/23 10:00:19;;;;;;;16.58;2.35;;;10.20;99.90;;;;;;5091880;28;20092;-61
2022/11/23 10:02:45;;;;;;;11.63;2.42;;;10.50;99.90;;;;;;5108209;28;20028;-61
2022/11/23 10:05:21;;;;;;;11.63;2.33;;;10.80;99.90;;;;;;5110428;28;20022;-61
2022/11/23 10:08:12;;;;;;;10.88;2.67;;;11.00;99.70;;;;;;5096162;28;20466;-61
2022/11/23 10:10:45;;;;;;;19.52;1.90;;;11.00;98.90;;;;;;5096473;28;20078;-61
2022/11/23 10:13:23;;;;;;;12.25;2.00;;;11.00;98.40;;;;;;5099319;27;20243;-61
2022/11/23 10:16:22;;;;;;;17.65;2.03;;;11.00;98.90;;;;;;5116010;28;20122;-61
2022/11/23 10:19:08;;;;;;;11.30;2.17;;;11.30;97.60;;;;;;5102901;28;20028;-61
2022/11/23 10:21:47;;;;;;;13.45;1.95;;;11.40;96.60;;;;;;5105416;28;20066;-61
2022/11/23 10:24:20;;;;;;;13.63;1.97;;;11.20;96.30;;;;;;5114380;28;20536;-61
2022/11/23 10:26:48;;;;;;;11.80;2.15;;;11.20;96.70;;;;;;5102800;28;20054;-61
2022/11/23 10:29:33;;;;;;;10.40;2.03;;;11.10;96.70;;;;;;5095524;28;20107;-61
2022/11/23 10:31:59;;;;;;;7.43;1.77;;;11.50;97.30;;;;;;5094802;28;20045;-61
2022/11/23 10:34:58;;;;;;;9.68;2.17;;;11.70;96.00;;;;;;5104567;28;20011;-61
2022/11/23 10:37:23;;;;;;;11.57;2.17;;;11.80;94.90;;;;;;5094888;28;20465;-61
2022/11/23 10:39:49;;;;;;;9.73;2.17;;;11.90;95.30;;;;;;5095781;28;20032;-61
2022/11/23 10:42:30;;;;;;;11.38;1.65;;;11.90;94.20;;;;;;5100233;28;20031;-61
2022/11/23 10:44:58;;;;;;;12.63;1.75;;;12.10;94.40;;;;;;5099282;28;21640;-61
2022/11/23 10:47:41;;;;;;;11.23;1.67;;;12.20;93.30;;;;;;5104727;28;20035;-61
2022/11/23 10:50:24;;;;;;;12.63;1.95;;;12.10;93.20;;;;;;5095893;28;20020;-61
2022/11/23 10:52:53;;;;;;;9.93;2.10;;;12.00;93.40;;;;;;5095002;28;20020;-61
2022/11/23 10:55:25;;;;;;;8.32;2.10;;;11.80;94.00;;;;;;5095050;28;20028;-61
2022/11/23 10:57:50;;;;;;;14.80;4.40;;;11.90;94.30;;;;;;5098369;28;20028;-61
2022/11/23 11:00:20;;;;;;;9.88;1.52;;;12.10;93.90;;;;;;5081487;28;20366;-61
2022/11/23 11:02:53;;;;;;;9.13;1.95;;;12.60;93.90;;;;;;5097406;28;20012;-61
2022/11/23 11:05:29;;;;;;;13.25;2.40;;;13.20;92.50;;;;;;5113343;28;20035;-61
2022/11/23 11:07:58;;;;;;;11.73;1.80;;;13.40;91.10;;;;;;5114143;28;20031;-61
2022/11/23 11:10:38;;;;;;;9.85;1.60;;;13.70;90.40;;;;;;5101679;28;20012;-61
2022/11/23 11:13:28;;;;;;;11.80;1.45;;;14.10;88.50;;;;;;5097066;28;20046;-61
2022/11/23 11:16:05;;;;;;;7.70;1.80;;;14.20;88.30;;;;;;5109437;28;20121;-61
2022/11/23 11:18:36;;;;;;;7.57;1.50;;;14.30;85.20;;;;;;5105166;28;20385;-61
2022/11/23 11:21:16;;;;;;;10.05;1.70;;;14.20;85.40;;;;;;5106552;28;20020;-61
2022/11/23 11:23:43;;;;;;;;;;;14.60;85.70;;;;;;5094774;28;20035;-61
2022/11/23 11:26:21;;;;;;;7.18;1.27;;;14.80;83.10;;;;;;5100135;28;19919;-61
2022/11/23 11:28:50;;;;;;;5.25;1.30;;;15.00;81.50;;;;;;5111334;28;20500;-61
2022/11/23 11:31:51;;;;;;;6.57;1.43;;;15.30;80.90;;;;;;5115072;28;20527;-61
2022/11/23 11:34:27;;;;;;;11.27;2.20;;;15.80;79.00;;;;;;5102194;28;20020;-61
2022/11/23 11:37:01;;;;;;;8.63;1.95;;;16.10;76.40;;;;;;5111934;28;20154;-61
2022/11/23 11:39:54;;;;;;;9.77;1.45;;;16.10;74.10;;;;;;5103981;28;20089;-61
2022/11/23 11:42:28;;;;;;;6.45;1.83;;;16.00;74.10;;;;;;5103367;28;20028;-61
2022/11/23 11:44:57;;;;;;;5.20;1.73;;;16.60;73.40;;;;;;5101781;28;20031;-61
2022/11/23 11:47:31;;;;;;;4.18;1.23;;;17.00;73.00;;;;;;5094044;28;20032;-61
2022/11/23 11:49:59;;;;;;;3.90;0.90;;;17.40;70.80;;;;;;5101734;28;20426;-61
2022/11/23 11:52:34;;;;;;;3.85;1.20;;;17.50;69.40;;;;;;5107342;28;20072;-62
2022/11/23 11:55:16;;;;;;;7.70;1.23;;;16.50;69.90;;;;;;5094706;28;20028;-62
2022/11/23 11:57:47;;;;;;;10.32;1.77;;;15.20;72.90;;;;;;5104530;27;20024;-62
2022/11/23 12:00:17;;;;;;;8.52;1.70;;;14.00;77.40;;;;;;5105819;28;20023;-62
2022/11/23 12:03:09;;;;;;;6.50;2.38;;;13.30;82.10;;;;;;5107787;28;20012;-62
2022/11/23 12:05:46;;;;;;;12.27;1.65;;;13.10;82.70;;;;;;5107580;28;20031;-61
2022/11/23 12:08:28;;;;;;;9.18;1.20;;;13.50;83.80;;;;;;5094247;28;20059;-61
2022/11/23 12:10:58;;;;;;;14.60;1.98;;;13.90;82.10;;;;;;5093717;28;20099;-62
2022/11/23 12:13:35;;;;;;;7.38;1.52;;;14.70;80.10;;;;;;5101943;28;20011;-62
2022/11/23 12:16:26;;;;;;;6.05;2.00;;;15.50;76.30;;;;;;5110956;28;20477;-62
2022/11/23 12:19:00;;;;;;;8.80;2.30;;;16.40;74.00;;;;;;5100277;28;20056;-62
2022/11/23 12:21:48;;;;;;;8.55;1.40;;;16.80;70.00;;;;;;5100481;28;20023;-62
2022/11/23 12:24:29;;;;;;;6.57;1.70;;;17.20;71.20;;;;;;5093658;28;20534;-62
2022/11/23 12:27:26;;;;;;;5.55;1.35;;;17.40;67.10;;;;;;5093619;28;20399;-62
2022/11/23 12:30:09;;;;;;;5.95;1.38;;;17.20;68.70;;;;;;5100057;28;20020;-62
2022/11/23 12:33:19;;;;;;;8.85;1.88;;;16.50;69.20;;;;;;5109005;27;20043;-62
2022/11/23 12:36:01;;;;;;;6.30;1.83;;;16.50;69.80;;;;;;5100721;28;20032;-62
2022/11/23 12:38:54;;;;;;;7.32;1.23;;;16.00;70.10;;;;;;5097711;27;20129;-62
2022/11/23 12:41:51;;;;;;;6.65;1.40;;;15.60;71.50;;;;;;5106693;28;20035;-62
2022/11/23 12:44:56;;;;;;;4.93;1.00;;;15.60;72.40;;;;;;5097627;28;20054;-62
2022/11/23 12:47:40;;;;;;;7.05;1.60;;;16.10;71.30;;;;;;5100294;28;20507;-62
2022/11/23 12:50:37;;;;;;;5.45;1.10;;;16.30;68.40;;;;;;5098768;28;20016;-62
2022/11/23 12:53:17;;;;;;;5.63;1.88;;;16.20;69.70;;;;;;5074863;28;20111;-62
2022/11/23 12:55:49;;;;;;;5.40;1.45;;;16.20;69.70;;;;;;5088243;28;20129;-62
2022/11/23 12:58:31;;;;;;;7.47;1.15;;;16.20;69.30;;;;;;5071658;28;20020;-62
2022/11/23 13:01:15;;;;;;;5.40;1.30;;;15.80;69.90;;;;;;5100606;28;20031;-62